createdAt,value
2017-10-06T00:01:08.645Z,79.80
2017-10-06T00:03:36.282Z,79.80
2017-10-06T00:06:04.864Z,79.70
2017-10-06T00:08:32.527Z,79.80
2017-10-06T00:10:59.779Z,79.80
2017-10-06T00:13:27.371Z,79.90
2017-10-06T00:15:55.819Z,79.70
2017-10-06T00:18:23.175Z,79.90
2017-10-06T00:20:50.428Z,79.80
2017-10-06T00:23:17.783Z,79.70
2017-10-06T00:25:45.242Z,79.80
2017-10-06T00:28:12.902Z,80.00
2017-10-06T00:30:41.590Z,80.20
2017-10-06T00:33:09.662Z,80.30
2017-10-06T00:35:37.223Z,80.20
2017-10-06T00:38:04.680Z,80.30
2017-10-06T00:40:32.139Z,80.10
2017-10-06T00:42:59.599Z,80.10
2017-10-06T00:45:28.390Z,80.10
2017-10-06T00:47:55.944Z,80.00
2017-10-06T00:50:23.402Z,79.90
2017-10-06T00:52:50.449Z,80.00
2017-10-06T00:55:17.600Z,80.10
2017-10-06T00:57:46.285Z,80.20
2017-10-06T01:00:13.334Z,80.10
2017-10-06T01:02:41.099Z,79.70
2017-10-06T01:05:08.965Z,79.50
2017-10-06T01:07:37.009Z,79.70
2017-10-06T01:10:04.222Z,79.80
2017-10-06T01:12:31.849Z,80.90
2017-10-06T01:15:00.067Z,80.00
2017-10-06T01:17:27.179Z,80.90
2017-10-06T01:19:54.770Z,80.90
2017-10-06T01:22:22.191Z,80.90
2017-10-06T01:24:49.957Z,81.00
2017-10-06T01:27:17.757Z,80.80
2017-10-06T01:29:45.076Z,81.10
2017-10-06T01:32:12.329Z,81.20
2017-10-06T01:34:39.992Z,81.60
2017-10-06T01:37:07.347Z,81.60
2017-10-06T01:39:34.598Z,81.70
2017-10-06T01:42:02.263Z,81.70
2017-10-06T01:44:30.538Z,82.60
2017-10-06T01:46:58.916Z,81.90
2017-10-06T01:49:26.617Z,81.80
2017-10-06T01:51:54.789Z,81.80
2017-10-06T01:54:22.007Z,81.80
2017-10-06T01:56:49.668Z,81.50
2017-10-06T01:59:18.150Z,81.50
2017-10-06T02:01:45.438Z,81.50
2017-10-06T02:04:14.021Z,81.60
2017-10-06T02:06:41.688Z,81.30
2017-10-06T02:09:09.004Z,81.40
2017-10-06T02:11:36.597Z,81.40
2017-10-06T02:14:04.510Z,81.50
2017-10-06T02:16:32.094Z,81.50
2017-10-06T02:18:59.963Z,81.60
2017-10-06T02:21:29.783Z,82.10
2017-10-06T02:23:58.972Z,81.90
2017-10-06T02:26:26.334Z,81.30
2017-10-06T02:28:55.014Z,81.50
2017-10-06T02:31:25.270Z,81.70
2017-10-06T02:33:53.182Z,81.70
2017-10-06T02:36:20.765Z,81.80
2017-10-06T02:38:48.735Z,81.90
2017-10-06T02:41:16.297Z,81.70
2017-10-06T02:43:44.368Z,82.50
2017-10-06T02:46:12.573Z,82.20
2017-10-06T02:48:39.691Z,81.90
2017-10-06T02:51:07.660Z,82.00
2017-10-06T02:53:35.258Z,82.00
2017-10-06T02:56:02.883Z,82.20
2017-10-06T02:58:31.163Z,82.90
2017-10-06T03:01:00.458Z,82.90
2017-10-06T03:03:27.612Z,82.40
2017-10-06T03:05:55.888Z,83.20
2017-10-06T03:08:23.141Z,83.10
2017-10-06T03:10:50.393Z,83.30
2017-10-06T03:13:18.601Z,83.60
2017-10-06T03:15:45.718Z,83.10
2017-10-06T03:18:12.766Z,83.10
2017-10-06T03:20:40.737Z,83.10
2017-10-06T03:23:08.091Z,83.00
2017-10-06T03:25:35.548Z,82.90
2017-10-06T03:28:03.314Z,82.90
2017-10-06T03:30:31.385Z,83.10
2017-10-06T03:32:59.150Z,82.90
2017-10-06T03:35:26.914Z,82.90
2017-10-06T03:37:54.474Z,83.00
2017-10-06T03:40:22.136Z,83.40
2017-10-06T03:42:50.723Z,83.40
2017-10-06T03:45:19.099Z,83.40
2017-10-06T03:47:47.479Z,84.40
2017-10-06T03:50:14.833Z,83.60
2017-10-06T03:52:42.392Z,83.60
2017-10-06T03:55:09.543Z,83.30
2017-10-06T03:57:36.694Z,83.30
2017-10-06T04:00:04.356Z,83.10
2017-10-06T04:02:31.815Z,83.20
2017-10-06T04:04:59.783Z,84.20
2017-10-06T04:07:27.446Z,83.40
2017-10-06T04:09:55.826Z,83.90
2017-10-06T04:12:23.896Z,83.30
2017-10-06T04:14:51.253Z,83.20
2017-10-06T04:17:19.357Z,83.20
2017-10-06T04:19:46.371Z,82.90
2017-10-06T04:22:13.624Z,82.90
2017-10-06T04:24:40.979Z,83.10
2017-10-06T04:27:26.506Z,82.60
2017-10-06T04:29:55.250Z,82.30
2017-10-06T04:32:23.424Z,83.10
2017-10-06T04:34:51.121Z,82.40
2017-10-06T04:37:27.748Z,82.50
2017-10-06T04:39:58.669Z,82.60
2017-10-06T04:42:28.849Z,82.20
2017-10-06T04:44:59.610Z,82.20
2017-10-06T04:47:44.901Z,82.50
2017-10-06T04:50:15.413Z,82.20
2017-10-06T04:52:45.042Z,82.70
2017-10-06T04:55:14.560Z,82.40
2017-10-06T04:57:42.237Z,82.30
2017-10-06T05:00:09.800Z,82.30
2017-10-06T05:02:38.995Z,83.40
2017-10-06T05:05:15.804Z,83.50
2017-10-06T05:07:45.199Z,82.80
2017-10-06T05:10:16.917Z,82.60
2017-10-06T05:12:44.081Z,82.50
2017-10-06T05:15:12.667Z,82.20
2017-10-06T05:17:44.107Z,82.50
2017-10-06T05:23:02.586Z,82.60
2017-10-06T05:25:33.051Z,82.70
2017-10-06T05:28:00.572Z,82.70
2017-10-06T05:30:28.849Z,83.60
2017-10-06T05:32:58.149Z,83.70
2017-10-06T05:35:27.217Z,83.50
2017-10-06T05:37:55.011Z,83.10
2017-10-06T05:40:24.309Z,83.30
2017-10-06T05:42:51.874Z,83.20
2017-10-06T05:45:20.077Z,83.30
2017-10-06T05:47:48.116Z,83.30
2017-10-06T05:50:18.184Z,83.20
2017-10-06T05:52:45.489Z,83.30
2017-10-06T05:55:12.845Z,83.00
2017-10-06T05:57:54.583Z,83.20
2017-10-06T06:00:22.710Z,83.10
2017-10-06T06:02:53.377Z,83.20
2017-10-06T06:05:21.721Z,83.00
2017-10-06T06:07:51.567Z,83.00
2017-10-06T06:10:20.764Z,82.90
2017-10-06T06:13:03.589Z,82.70
2017-10-06T06:15:32.886Z,82.60
2017-10-06T06:18:00.410Z,82.60
2017-10-06T06:20:28.278Z,82.20
2017-10-06T06:22:56.455Z,82.20
2017-10-06T06:25:25.753Z,82.50
2017-10-06T06:27:54.748Z,82.50
2017-10-06T06:30:23.161Z,82.10
2017-10-06T06:32:51.302Z,82.00
2017-10-06T06:35:19.579Z,82.10
2017-10-06T06:37:47.347Z,82.00
2017-10-06T06:40:15.721Z,82.10
2017-10-06T06:42:45.330Z,81.90
2017-10-06T06:45:13.197Z,81.50
2017-10-06T06:47:41.884Z,80.00
2017-10-06T06:50:09.136Z,80.10
2017-10-06T06:52:37.516Z,79.10
2017-10-06T06:55:04.972Z,78.60
2017-10-06T06:57:32.532Z,77.90
2017-10-06T07:00:00.604Z,78.20
2017-10-06T07:02:28.266Z,78.00
2017-10-06T07:04:56.274Z,78.20
2017-10-06T07:07:30.759Z,77.80
2017-10-06T07:09:58.525Z,78.00
2017-10-06T07:12:26.086Z,77.60
2017-10-06T07:14:54.088Z,76.90
2017-10-06T07:17:21.720Z,76.90
2017-10-06T07:19:49.378Z,76.80
2017-10-06T07:22:16.731Z,77.10
2017-10-06T07:24:44.431Z,77.40
2017-10-06T07:27:12.345Z,77.70
2017-10-06T07:29:40.645Z,77.80
2017-10-06T07:32:07.794Z,77.90
2017-10-06T07:34:35.763Z,77.90
2017-10-06T07:37:03.226Z,78.50
2017-10-06T07:39:32.078Z,78.50
2017-10-06T07:41:59.567Z,78.90
2017-10-06T07:44:28.357Z,79.70
2017-10-06T07:46:56.326Z,79.80
2017-10-06T07:49:24.298Z,79.80
2017-10-06T07:51:51.753Z,79.90
2017-10-06T07:54:20.030Z,80.20
2017-10-06T07:56:48.848Z,81.20
2017-10-06T07:59:16.175Z,81.40
2017-10-06T08:01:44.922Z,81.20
2017-10-06T08:04:12.529Z,81.40
2017-10-06T08:06:40.628Z,81.80
2017-10-06T08:09:09.053Z,81.80
2017-10-06T08:11:38.041Z,81.60
2017-10-06T08:14:05.528Z,80.90
2017-10-06T08:16:32.917Z,80.90
2017-10-06T08:19:00.139Z,80.60
2017-10-06T08:21:28.365Z,80.80
2017-10-06T08:23:55.768Z,81.10
2017-10-06T08:26:24.454Z,81.40
2017-10-06T08:28:52.525Z,81.80
2017-10-06T08:31:20.706Z,82.20
2017-10-06T08:33:49.590Z,81.60
2017-10-06T08:36:17.048Z,81.60
2017-10-06T08:38:45.120Z,81.70
2017-10-06T08:41:13.398Z,80.90
2017-10-06T08:43:48.130Z,80.90
2017-10-06T08:46:16.236Z,80.60
2017-10-06T08:48:46.357Z,80.80
2017-10-06T08:51:15.082Z,81.50
2017-10-06T08:53:42.284Z,81.10
2017-10-06T08:56:11.547Z,80.00
2017-10-06T08:58:41.254Z,79.80
2017-10-06T09:01:08.416Z,80.20
2017-10-06T09:03:35.876Z,79.30
2017-10-06T09:06:04.255Z,78.10
2017-10-06T09:08:31.506Z,77.20
2017-10-06T09:11:00.477Z,71.50
2017-10-06T09:13:28.367Z,63.30
2017-10-06T09:15:56.645Z,58.30
2017-10-06T09:18:24.693Z,55.40
2017-10-06T09:20:52.378Z,51.20
2017-10-06T09:23:19.974Z,50.40
2017-10-06T09:25:47.192Z,51.50
2017-10-06T09:28:14.885Z,53.70
2017-10-06T09:30:43.746Z,55.80
2017-10-06T09:33:12.573Z,57.50
2017-10-06T09:35:50.136Z,56.80
2017-10-06T09:38:20.769Z,57.00
2017-10-06T09:40:48.218Z,57.30
2017-10-06T09:43:15.369Z,58.30
2017-10-06T09:45:42.450Z,58.90
2017-10-06T09:48:10.489Z,57.70
2017-10-06T09:50:43.789Z,59.50
2017-10-06T09:53:14.807Z,58.60
2017-10-06T09:55:45.569Z,59.90
2017-10-06T09:58:12.606Z,61.60
2017-10-06T10:00:40.376Z,62.70
2017-10-06T10:03:07.523Z,65.10
2017-10-06T10:05:39.564Z,64.50
2017-10-06T10:08:08.738Z,64.50
2017-10-06T10:10:36.789Z,65.30
2017-10-06T10:13:08.655Z,65.30
2017-10-06T10:15:35.971Z,65.00
2017-10-06T10:18:03.839Z,64.40
2017-10-06T10:20:31.297Z,63.00
2017-10-06T10:22:59.061Z,63.80
2017-10-06T10:25:26.416Z,64.20
2017-10-06T10:27:54.284Z,64.10
2017-10-06T10:30:28.909Z,63.70
2017-10-06T10:32:56.637Z,64.20
2017-10-06T10:35:28.061Z,64.20
2017-10-06T10:37:57.119Z,64.30
2017-10-06T10:40:24.269Z,63.80
2017-10-06T10:42:51.623Z,64.00
2017-10-06T10:45:18.876Z,63.70
2017-10-06T10:47:47.772Z,63.20
2017-10-06T10:50:16.147Z,63.60
2017-10-06T10:52:43.607Z,63.40
2017-10-06T10:55:24.401Z,63.00
2017-10-06T10:57:59.659Z,62.50
2017-10-06T11:00:27.585Z,61.90
2017-10-06T11:03:04.530Z,61.60
2017-10-06T11:05:36.445Z,62.60
2017-10-06T11:08:10.028Z,62.40
2017-10-06T11:10:38.684Z,62.40
2017-10-06T11:13:06.069Z,62.10
2017-10-06T11:15:35.146Z,61.90
2017-10-06T11:18:11.315Z,61.00
2017-10-06T11:20:39.911Z,58.40
2017-10-06T11:23:16.344Z,58.40
2017-10-06T11:25:59.487Z,58.90
2017-10-06T11:28:35.683Z,58.80
2017-10-06T11:31:05.153Z,58.90
2017-10-06T11:33:36.341Z,58.60
2017-10-06T11:36:04.614Z,59.40
2017-10-06T11:38:33.073Z,57.80
2017-10-06T11:41:01.976Z,57.60
2017-10-06T11:43:40.999Z,58.00
2017-10-06T11:46:13.398Z,58.50
2017-10-06T11:48:42.001Z,59.40
2017-10-06T11:54:06.332Z,59.00
2017-10-06T11:56:56.396Z,59.30
2017-10-06T11:59:29.224Z,60.10
2017-10-06T12:01:58.257Z,60.00
2017-10-06T12:04:29.289Z,59.50
2017-10-06T12:06:59.790Z,59.90
2017-10-06T12:09:28.676Z,59.80
2017-10-06T12:11:57.063Z,60.50
2017-10-06T12:14:26.313Z,60.10
2017-10-06T12:16:56.099Z,60.50
2017-10-06T12:19:24.865Z,60.60
2017-10-06T12:21:52.323Z,60.60
2017-10-06T12:24:21.351Z,61.00
2017-10-06T12:26:48.774Z,59.70
2017-10-06T12:29:17.559Z,60.60
2017-10-06T12:31:51.726Z,61.10
2017-10-06T12:34:20.601Z,62.80
2017-10-06T12:36:48.058Z,65.30
2017-10-06T12:39:17.323Z,66.40
2017-10-06T12:41:45.834Z,68.10
2017-10-06T12:44:14.084Z,66.60
2017-10-06T12:46:42.360Z,68.40
2017-10-06T12:49:10.826Z,69.20
2017-10-06T12:51:41.266Z,69.30
2017-10-06T12:54:12.923Z,69.30
2017-10-06T12:56:46.128Z,71.50
2017-10-06T12:59:18.973Z,70.80
2017-10-06T13:02:00.948Z,72.00
2017-10-06T13:04:29.173Z,72.80
2017-10-06T13:07:02.709Z,72.70
2017-10-06T13:09:35.534Z,72.30
2017-10-06T13:12:10.537Z,72.20
2017-10-06T13:14:53.394Z,71.90
2017-10-06T13:17:23.325Z,71.40
2017-10-06T13:19:51.499Z,71.40
2017-10-06T13:22:19.162Z,70.10
2017-10-06T13:24:46.522Z,70.20
2017-10-06T13:27:14.896Z,69.40
2017-10-06T13:29:42.765Z,69.60
2017-10-06T13:32:11.593Z,70.30
2017-10-06T13:34:42.505Z,69.10
2017-10-06T13:37:10.666Z,69.90
2017-10-06T13:39:50.389Z,69.90
2017-10-06T13:42:25.258Z,69.50
2017-10-06T13:44:54.825Z,69.50
2017-10-06T13:47:25.894Z,70.30
2017-10-06T13:50:03.429Z,69.10
2017-10-06T13:52:38.616Z,69.60
2017-10-06T13:58:06.622Z,68.40
2017-10-06T14:00:42.067Z,69.30
2017-10-06T14:03:16.945Z,69.20
2017-10-06T14:05:45.781Z,67.10
2017-10-06T14:08:20.852Z,67.10
2017-10-06T14:11:00.604Z,67.70
2017-10-06T14:13:32.763Z,66.90
2017-10-06T14:16:10.891Z,66.30
2017-10-06T14:18:56.526Z,66.80
2017-10-06T14:21:28.346Z,65.60
2017-10-06T14:23:57.861Z,66.30
2017-10-06T14:26:27.264Z,66.70
2017-10-06T14:28:57.385Z,65.70
2017-10-06T14:31:26.329Z,65.70
2017-10-06T14:34:03.780Z,65.30
2017-10-06T14:36:31.254Z,65.20
2017-10-06T14:39:09.317Z,63.50
2017-10-06T14:41:37.637Z,63.80
2017-10-06T14:44:05.404Z,65.00
2017-10-06T14:46:32.860Z,64.40
2017-10-06T14:49:02.117Z,65.30
2017-10-06T14:51:32.988Z,64.40
2017-10-06T14:54:03.000Z,63.40
2017-10-06T14:56:33.818Z,63.40
2017-10-06T14:59:02.539Z,63.60
2017-10-06T15:01:36.544Z,63.50
2017-10-06T15:04:04.113Z,63.10
2017-10-06T15:06:32.591Z,63.40
2017-10-06T15:09:01.892Z,63.50
2017-10-06T15:11:30.140Z,64.30
2017-10-06T15:13:57.771Z,64.50
2017-10-06T15:16:40.279Z,64.40
2017-10-06T15:19:09.878Z,65.20
2017-10-06T15:21:57.728Z,65.50
2017-10-06T15:24:26.470Z,65.00
2017-10-06T15:26:54.733Z,65.10
2017-10-06T15:29:23.009Z,65.60
2017-10-06T15:31:53.624Z,65.00
2017-10-06T15:34:23.333Z,65.60
2017-10-06T15:36:50.416Z,65.10
2017-10-06T15:39:17.464Z,65.80
2017-10-06T15:41:45.637Z,64.70
2017-10-06T15:44:12.890Z,66.20
2017-10-06T15:46:41.167Z,66.40
2017-10-06T15:49:10.468Z,65.80
2017-10-06T15:51:38.439Z,65.50
2017-10-06T15:54:06.509Z,65.20
2017-10-06T15:56:34.683Z,64.80
2017-10-06T15:59:02.142Z,64.30
2017-10-06T16:01:29.936Z,64.80
2017-10-06T16:03:57.568Z,64.10
2017-10-06T16:06:26.049Z,64.50
2017-10-06T16:08:53.507Z,65.30
2017-10-06T16:11:22.165Z,65.40
2017-10-06T16:13:51.878Z,65.60
2017-10-06T16:16:19.259Z,65.60
2017-10-06T16:18:47.876Z,66.40
2017-10-06T16:21:15.609Z,66.40
2017-10-06T16:23:43.579Z,66.30
2017-10-06T16:26:10.729Z,66.50
2017-10-06T16:28:37.982Z,66.90
2017-10-06T16:31:05.444Z,67.30
2017-10-06T16:33:32.691Z,67.70
2017-10-06T16:36:01.480Z,67.80
2017-10-06T16:38:29.961Z,68.10
2017-10-06T16:40:57.655Z,68.10
2017-10-06T16:43:25.318Z,68.50
2017-10-06T16:45:53.329Z,69.40
2017-10-06T16:48:21.635Z,68.90
2017-10-06T16:50:50.190Z,69.20
2017-10-06T16:53:17.792Z,69.30
2017-10-06T16:55:47.055Z,69.70
2017-10-06T16:58:15.697Z,69.70
2017-10-06T17:00:43.123Z,69.60
2017-10-06T17:03:10.712Z,69.60
2017-10-06T17:05:38.274Z,69.30
2017-10-06T17:08:05.803Z,69.50
2017-10-06T17:10:34.461Z,69.80
2017-10-06T17:13:01.640Z,70.10
2017-10-06T17:15:29.302Z,69.80
2017-10-06T17:17:59.944Z,69.50
2017-10-06T17:20:28.241Z,70.20
2017-10-06T17:22:55.768Z,70.20
2017-10-06T17:25:23.330Z,70.50
2017-10-06T17:27:50.479Z,70.10
2017-10-06T17:30:19.136Z,70.30
2017-10-06T17:32:46.931Z,70.60
2017-10-06T17:35:17.970Z,70.80
2017-10-06T17:37:46.249Z,71.20
2017-10-06T17:40:13.980Z,70.90
2017-10-06T17:42:41.268Z,71.30
2017-10-06T17:45:09.031Z,71.40
2017-10-06T17:47:36.284Z,71.30
2017-10-06T17:50:03.846Z,71.20
2017-10-06T17:52:32.193Z,71.20
2017-10-06T17:54:59.578Z,71.40
2017-10-06T17:57:27.141Z,71.60
2017-10-06T17:59:56.060Z,71.90
2017-10-06T18:02:24.407Z,72.00
2017-10-06T18:04:52.182Z,71.90
2017-10-06T18:07:19.733Z,72.10
2017-10-06T18:09:47.104Z,72.20
2017-10-06T18:12:15.365Z,72.60
2017-10-06T18:14:43.060Z,72.60
2017-10-06T18:17:10.689Z,72.80
2017-10-06T18:19:38.809Z,73.20
2017-10-06T18:22:20.918Z,73.30
2017-10-06T18:25:02.671Z,73.50
2017-10-06T18:27:32.163Z,73.90
2017-10-06T18:30:01.054Z,74.10
2017-10-06T18:32:29.057Z,74.20
2017-10-06T18:34:57.167Z,74.20
2017-10-06T18:37:25.066Z,74.20
2017-10-06T18:39:52.424Z,74.40
2017-10-06T18:42:20.430Z,74.50
2017-10-06T18:44:48.771Z,74.30
2017-10-06T18:47:17.047Z,74.20
2017-10-06T18:49:44.914Z,74.30
2017-10-06T18:52:12.679Z,74.30
2017-10-06T18:54:40.442Z,74.40
2017-10-06T18:57:07.797Z,74.20
2017-10-06T18:59:35.254Z,74.10
2017-10-06T19:02:03.123Z,74.00
2017-10-06T19:04:30.374Z,74.30
2017-10-06T19:06:58.378Z,74.50
2017-10-06T19:09:25.801Z,74.70
2017-10-06T19:11:53.260Z,75.10
2017-10-06T19:14:21.669Z,75.40
2017-10-06T19:16:49.915Z,75.40
2017-10-06T19:19:17.272Z,75.80
2017-10-06T19:21:45.048Z,75.90
2017-10-06T19:24:14.642Z,76.60
2017-10-06T19:26:42.103Z,76.10
2017-10-06T19:29:09.970Z,76.10
2017-10-06T19:31:39.166Z,76.70
2017-10-06T19:34:07.445Z,76.70
2017-10-06T19:36:35.589Z,77.00
2017-10-06T19:39:02.563Z,77.10
2017-10-06T19:41:30.636Z,77.20
2017-10-06T19:44:01.370Z,77.30
2017-10-06T19:46:29.338Z,77.30
2017-10-06T19:48:56.796Z,77.00
2017-10-06T19:51:26.096Z,77.00
2017-10-06T19:53:53.453Z,77.10
2017-10-06T19:56:21.116Z,77.00
2017-10-06T19:58:49.801Z,77.00
2017-10-06T20:01:17.258Z,77.00
2017-10-06T20:03:52.397Z,76.70
2017-10-06T20:06:20.952Z,76.40
2017-10-06T20:08:48.439Z,76.40
2017-10-06T20:11:18.864Z,76.10
2017-10-06T20:13:52.133Z,76.10
2017-10-06T20:16:32.129Z,76.50
2017-10-06T20:19:06.605Z,76.40
2017-10-06T20:21:44.233Z,76.50
2017-10-06T20:24:15.279Z,77.10
2017-10-06T20:26:47.449Z,76.50
2017-10-06T20:29:18.531Z,76.60
2017-10-06T20:31:49.761Z,76.50
2017-10-06T20:34:17.533Z,76.80
2017-10-06T20:36:48.121Z,76.70
2017-10-06T20:39:16.230Z,76.70
2017-10-06T20:41:44.038Z,76.60
2017-10-06T20:44:11.418Z,76.30
2017-10-06T20:46:40.513Z,76.40
2017-10-06T20:49:08.074Z,76.40
2017-10-06T20:51:37.864Z,76.10
2017-10-06T20:54:07.711Z,76.00
2017-10-06T20:56:43.970Z,76.10
2017-10-06T20:59:11.831Z,76.10
2017-10-06T21:01:39.391Z,76.00
2017-10-06T21:04:08.353Z,76.20
2017-10-06T21:06:36.968Z,75.90
2017-10-06T21:09:06.065Z,76.40
2017-10-06T21:11:33.931Z,76.20
2017-10-06T21:14:06.519Z,75.70
2017-10-06T21:16:35.299Z,76.30
2017-10-06T21:19:09.413Z,76.30
2017-10-06T21:21:36.564Z,76.50
2017-10-06T21:24:05.689Z,77.00
2017-10-06T21:26:33.936Z,76.70
2017-10-06T21:29:04.673Z,76.70
2017-10-06T21:31:31.718Z,76.80
2017-10-06T21:33:59.381Z,77.10
2017-10-06T21:36:28.288Z,77.20
2017-10-06T21:38:56.240Z,77.20
2017-10-06T21:41:23.699Z,77.80
2017-10-06T21:43:52.011Z,77.40
2017-10-06T21:46:19.434Z,77.20
2017-10-06T21:48:47.200Z,77.40
2017-10-06T21:51:16.053Z,77.40
2017-10-06T21:53:43.445Z,77.60
2017-10-06T21:56:13.282Z,77.40
2017-10-06T21:58:43.141Z,77.40
2017-10-06T22:01:11.552Z,77.60
2017-10-06T22:03:40.282Z,77.70
2017-10-06T22:06:08.265Z,77.70
2017-10-06T22:08:36.997Z,77.80
2017-10-06T22:11:06.502Z,77.90
2017-10-06T22:13:34.371Z,77.90
2017-10-06T22:16:01.449Z,77.80
2017-10-06T22:18:30.967Z,77.80
2017-10-06T22:20:58.483Z,77.60
2017-10-06T22:26:03.949Z,77.40
2017-10-06T22:28:36.565Z,77.10
2017-10-06T22:31:03.980Z,77.20
2017-10-06T22:33:31.235Z,77.40
2017-10-06T22:35:59.407Z,77.40
2017-10-06T22:38:27.480Z,77.40
2017-10-06T22:40:55.629Z,77.50
2017-10-06T22:43:24.035Z,77.70
2017-10-06T22:45:51.697Z,77.60
2017-10-06T22:48:20.030Z,77.80
2017-10-06T22:50:48.049Z,78.00
2017-10-06T22:53:16.424Z,78.00
2017-10-06T22:55:45.756Z,77.90
2017-10-06T22:58:15.057Z,77.90
2017-10-06T23:00:43.230Z,77.90
2017-10-06T23:03:11.274Z,77.70
2017-10-06T23:05:39.830Z,77.70
2017-10-06T23:08:07.726Z,77.30
2017-10-06T23:10:35.797Z,77.60
2017-10-06T23:13:04.209Z,77.20
2017-10-06T23:15:31.635Z,77.20
2017-10-06T23:17:58.996Z,77.20
2017-10-06T23:20:28.373Z,77.20
2017-10-06T23:22:55.848Z,77.20
2017-10-06T23:25:23.306Z,77.00
2017-10-06T23:28:05.936Z,77.10
2017-10-06T23:30:34.305Z,77.10
2017-10-06T23:33:11.474Z,77.40
2017-10-06T23:35:57.888Z,77.20
2017-10-06T23:38:32.008Z,77.00
2017-10-06T23:41:05.121Z,77.30
2017-10-06T23:43:33.546Z,77.20
2017-10-06T23:46:01.416Z,77.00
2017-10-06T23:48:29.306Z,77.10
2017-10-06T23:50:56.968Z,77.10
2017-10-06T23:53:25.381Z,77.10
2017-10-06T23:55:54.648Z,77.00
2017-10-06T23:58:24.465Z,76.60
